12:54
Airports
History
Links
Donate
Help keep this website running!
PayPal
Bitcoin
This page is community maintained. The information is intended for PC simulator navigation or reference.
Always use approved charts for navigation.
RJAH
HYAKURI
HYAKURI (RJAH)
Omitama-shi, Ibaraki Prefecture, Japan (311)
(C)
Lat/Lng:36° 10' 51.85" N / 140° 24' 55.55" E
36.18107 / 140.415431
Elevation:105'ft / 32mMSL
ID / ICAO:RJAH
Runways:1
Longest:03-21
Concrete 2,704m / 8,870ft
Controlled:Yes
METAR12:00 GMT 2017-12-18
Altimeter: 30.15
Visibility: 6.2 statute miles
Wind: 2 knots (from 340°)
Temp: -1°c / 30°f
Humidity: 74.2%

METAR: RJAH 181200Z 34002KT 9999 FEW050 M01/M05 Q1021

(Powered by phpweather)
Airport Radio Frequencies
Ground: 119.5
Tower: 119.5, 126.2
Approach: 124.8, 120.1
Departure: 120.1
Nearby VORs <50NM
Nearby NDBs
Runway 03 / 21
Dimensions:2703.7 x 45.7m 8870' x 150'ft
Surface:Concrete
Edge Lights:Medium intensity
Runway 03 [A]Runway 21 [B]
Heading:019°TH 199°TH
Lat:
Lng:
36° 10' 10.6"N
140° 24' 37.1"E
36° 11' 33.1"N
140° 25' 14"E
ALS:ALSF-I
TDZ:Yes, lighted
User Notes and Comments
36° 10' 51.85" N / 140° 24' 55.55" E
Distance To
Airport ID:
Nearby Airports
(C) Ami 13.7 NM
RJA1 SW 216°
(C) Kasumigaura AB 16.0 NM
RJAK ( WX ) SW 229°
(C) Ryugasaki 21.4 NM
RJA3 SSW 206°
(C) Ohotone 24.4 NM
RJA2 SSW 203°
(C) NARITA INTL 28.3 NM
RJAA ( WX ) S 183°
(C) SHIMOFUSA 34.7 NM
RJTL ( WX ) SW 220°
(C) UTSUNOMIYA 38.1 NM
RJTU ( WX ) NW 307°
VFR Chart
Flight Planning at SkyVector.com